createdAt,value
2022-09-30T00:01:22.360Z,14.38
2022-09-30T00:04:13.453Z,17.35
2022-09-30T00:06:59.572Z,14.50
2022-09-30T00:09:48.045Z,14.15
2022-09-30T00:12:34.037Z,16.95
2022-09-30T00:15:20.593Z,10.80
2022-09-30T00:18:06.423Z,12.20
2022-09-30T00:20:53.244Z,12.43
2022-09-30T00:23:39.813Z,11.10
2022-09-30T00:26:26.009Z,16.15
2022-09-30T00:29:12.400Z,20.85
2022-09-30T00:31:58.661Z,18.63
2022-09-30T00:34:44.478Z,10.70
2022-09-30T00:37:30.508Z,12.45
2022-09-30T00:40:16.568Z,11.57
2022-09-30T00:43:02.934Z,17.60
2022-09-30T00:45:56.717Z,20.23
2022-09-30T00:48:42.693Z,21.67
2022-09-30T00:51:42.157Z,17.95
2022-09-30T00:54:30.214Z,19.80
2022-09-30T00:57:17.717Z,25.20
2022-09-30T01:00:05.572Z,14.50
2022-09-30T01:02:51.879Z,14.02
2022-09-30T01:05:37.791Z,21.23
2022-09-30T01:08:23.883Z,17.92
2022-09-30T01:11:10.538Z,20.25
2022-09-30T01:14:12.124Z,20.63
2022-09-30T01:17:22.833Z,24.85
2022-09-30T01:20:27.404Z,19.92
2022-09-30T01:23:32.266Z,24.88
2022-09-30T01:26:40.781Z,21.17
2022-09-30T01:29:45.378Z,24.23
2022-09-30T01:32:43.503Z,19.65
2022-09-30T01:35:55.113Z,16.95
2022-09-30T01:38:40.952Z,21.63
2022-09-30T01:41:32.079Z,21.25
2022-09-30T01:44:35.573Z,20.52
2022-09-30T01:47:31.398Z,22.35
2022-09-30T01:50:22.028Z,24.88
2022-09-30T01:53:26.796Z,16.45
2022-09-30T01:56:23.812Z,20.88
2022-09-30T01:59:15.890Z,16.90
2022-09-30T02:02:06.968Z,13.98
2022-09-30T02:04:57.608Z,18.13
2022-09-30T02:07:47.070Z,18.38
2022-09-30T02:10:44.642Z,16.92
2022-09-30T02:13:43.004Z,14.50
2022-09-30T02:16:42.253Z,13.60
2022-09-30T02:19:52.541Z,18.33
2022-09-30T02:22:45.674Z,19.75
2022-09-30T02:25:48.553Z,16.35
2022-09-30T02:28:39.487Z,15.00
2022-09-30T02:31:26.903Z,22.05
2022-09-30T02:34:15.980Z,15.15
2022-09-30T02:37:15.493Z,15.77
2022-09-30T02:40:36.539Z,18.88
2022-09-30T02:43:22.773Z,21.10
2022-09-30T02:46:12.057Z,18.13
2022-09-30T02:49:28.402Z,12.68
2022-09-30T02:52:35.553Z,12.02
2022-09-30T02:55:33.967Z,15.48
2022-09-30T02:58:26.220Z,16.60
2022-09-30T03:01:14.420Z,16.30
2022-09-30T03:04:04.181Z,19.90
2022-09-30T03:06:50.752Z,17.88
2022-09-30T03:09:36.988Z,19.00
2022-09-30T03:12:54.472Z,17.90
2022-09-30T03:15:46.500Z,18.33
2022-09-30T03:19:07.797Z,18.80
2022-09-30T03:22:25.150Z,16.00
2022-09-30T03:25:38.790Z,22.85
2022-09-30T03:28:33.438Z,31.13
2022-09-30T03:31:38.500Z,31.40
2022-09-30T03:34:42.778Z,28.08
2022-09-30T03:37:45.461Z,25.95
2022-09-30T03:43:32.573Z,36.08
2022-09-30T03:46:23.793Z,34.50
2022-09-30T03:49:16.150Z,31.73
2022-09-30T03:52:06.793Z,25.55
2022-09-30T03:54:59.374Z,23.88
2022-09-30T03:57:45.824Z,24.42
2022-09-30T04:00:32.940Z,24.08
2022-09-30T04:03:19.801Z,21.45
2022-09-30T04:06:05.943Z,22.77
2022-09-30T04:08:54.004Z,27.25
2022-09-30T04:11:40.059Z,23.55
2022-09-30T04:14:26.576Z,29.67
2022-09-30T04:17:13.169Z,34.00
2022-09-30T04:19:59.091Z,30.20
2022-09-30T04:22:44.949Z,32.53
2022-09-30T04:25:30.809Z,29.83
2022-09-30T04:28:16.721Z,22.58
2022-09-30T04:31:04.179Z,27.60
2022-09-30T04:33:50.794Z,29.20
2022-09-30T04:36:36.644Z,26.63
2022-09-30T04:39:22.669Z,27.23
2022-09-30T04:42:08.337Z,30.55
2022-09-30T04:44:54.281Z,33.00
2022-09-30T04:47:45.400Z,33.50
2022-09-30T04:50:31.931Z,30.67
2022-09-30T04:53:18.761Z,25.92
2022-09-30T04:56:04.926Z,35.38
2022-09-30T04:58:52.213Z,29.88
2022-09-30T05:01:39.420Z,27.13
2022-09-30T05:04:25.603Z,24.48
2022-09-30T05:07:11.674Z,25.52
2022-09-30T05:09:57.633Z,27.35
2022-09-30T05:12:45.433Z,31.98
2022-09-30T05:15:31.457Z,26.20
2022-09-30T05:18:19.394Z,25.17
2022-09-30T05:21:05.634Z,23.15
2022-09-30T05:23:53.840Z,25.33
2022-09-30T05:26:43.023Z,23.08
2022-09-30T05:29:29.680Z,26.27
2022-09-30T05:32:15.895Z,24.02
2022-09-30T05:35:03.554Z,21.33
2022-09-30T05:37:49.501Z,17.45
2022-09-30T05:40:38.646Z,19.17
2022-09-30T05:43:24.874Z,18.67
2022-09-30T05:53:25.383Z,15.85
2022-09-30T05:56:12.032Z,17.63
2022-09-30T05:58:58.113Z,21.48
2022-09-30T06:01:44.257Z,18.08
2022-09-30T06:04:30.082Z,17.95
2022-09-30T06:07:16.084Z,19.33
2022-09-30T06:10:03.232Z,25.38
2022-09-30T06:12:49.355Z,22.88
2022-09-30T06:15:38.161Z,25.40
2022-09-30T06:18:24.158Z,31.80
2022-09-30T06:21:13.026Z,23.73
2022-09-30T06:23:58.949Z,22.15
2022-09-30T06:26:44.845Z,18.52
2022-09-30T06:29:30.666Z,23.02
2022-09-30T06:32:17.383Z,18.15
2022-09-30T06:35:04.202Z,20.67
2022-09-30T06:37:53.971Z,19.88
2022-09-30T06:40:39.943Z,12.75
2022-09-30T06:43:25.859Z,16.67
2022-09-30T06:46:17.665Z,17.13
2022-09-30T06:49:13.305Z,16.42
2022-09-30T06:52:01.037Z,16.50
2022-09-30T06:54:47.277Z,15.57
2022-09-30T06:57:33.440Z,13.27
2022-09-30T07:00:19.559Z,13.75
2022-09-30T07:03:10.191Z,11.52
2022-09-30T07:06:04.347Z,14.48
2022-09-30T07:08:51.822Z,18.25
2022-09-30T07:11:38.295Z,17.67
2022-09-30T07:14:24.359Z,18.92
2022-09-30T07:17:10.278Z,22.02
2022-09-30T07:19:56.530Z,17.83
2022-09-30T07:22:42.519Z,18.73
2022-09-30T07:25:28.691Z,21.52
2022-09-30T07:28:14.688Z,13.63
2022-09-30T07:31:30.744Z,17.48
2022-09-30T07:34:09.603Z,13.60
2022-09-30T07:36:55.670Z,14.85
2022-09-30T07:39:42.946Z,14.48
2022-09-30T07:42:31.147Z,17.77
2022-09-30T07:45:18.928Z,36.85
2022-09-30T07:48:24.957Z,18.60
2022-09-30T07:51:19.798Z,16.60
2022-09-30T07:54:13.613Z,25.73
2022-09-30T07:57:16.186Z,23.98
2022-09-30T08:00:17.004Z,21.98
2022-09-30T08:03:08.690Z,24.17
2022-09-30T08:05:54.722Z,24.55
2022-09-30T08:08:41.425Z,19.98
2022-09-30T08:11:27.793Z,18.50
2022-09-30T08:14:15.874Z,14.40
2022-09-30T08:17:02.406Z,26.73
2022-09-30T08:19:49.285Z,18.20
2022-09-30T08:22:35.444Z,24.10
2022-09-30T08:25:23.076Z,21.20
2022-09-30T08:28:09.185Z,28.05
2022-09-30T08:30:54.977Z,23.63
2022-09-30T08:33:41.461Z,19.23
2022-09-30T08:36:27.940Z,15.77
2022-09-30T08:39:14.039Z,13.43
2022-09-30T08:42:32.338Z,15.40
2022-09-30T08:45:31.023Z,14.45
2022-09-30T08:48:29.723Z,13.73
2022-09-30T08:51:37.622Z,15.55
2022-09-30T08:54:26.211Z,10.85
2022-09-30T08:57:12.886Z,15.18
2022-09-30T09:00:06.332Z,12.68
2022-09-30T09:02:54.916Z,18.95
2022-09-30T09:06:01.867Z,16.35
2022-09-30T09:08:49.436Z,20.88
2022-09-30T09:11:54.391Z,13.05
2022-09-30T09:15:02.069Z,18.23
2022-09-30T09:18:24.723Z,9.13
2022-09-30T09:21:22.601Z,12.63
2022-09-30T09:24:17.588Z,13.45
2022-09-30T09:27:14.229Z,10.32
2022-09-30T09:30:07.581Z,11.63
2022-09-30T09:32:57.193Z,16.83
2022-09-30T09:36:22.306Z,11.82
2022-09-30T09:39:38.943Z,7.35
2022-09-30T09:42:50.666Z,9.98
2022-09-30T09:45:42.663Z,11.13
2022-09-30T09:48:30.778Z,13.70
2022-09-30T09:51:25.176Z,12.52
2022-09-30T09:54:12.505Z,9.27
2022-09-30T09:57:12.144Z,9.85
2022-09-30T10:00:22.575Z,7.10
2022-09-30T10:03:24.223Z,6.68
2022-09-30T10:06:12.904Z,9.40
2022-09-30T10:08:58.740Z,11.38
2022-09-30T10:11:44.794Z,8.57
2022-09-30T10:14:31.289Z,9.73
2022-09-30T10:17:31.240Z,6.80
2022-09-30T10:20:23.358Z,7.63
2022-09-30T10:23:36.194Z,7.32
2022-09-30T10:26:24.852Z,9.80
2022-09-30T10:29:29.747Z,4.63
2022-09-30T10:32:15.477Z,9.82
2022-09-30T10:35:06.490Z,9.45
2022-09-30T10:37:58.276Z,8.32
2022-09-30T10:40:49.975Z,14.18
2022-09-30T10:43:43.635Z,9.32
2022-09-30T10:46:33.322Z,7.57
2022-09-30T10:49:30.082Z,7.22
2022-09-30T10:52:19.617Z,15.05
2022-09-30T10:55:18.696Z,8.88
2022-09-30T10:58:29.813Z,10.40
2022-09-30T11:01:32.725Z,10.02
2022-09-30T11:04:34.448Z,8.18
2022-09-30T11:07:27.807Z,10.02
2022-09-30T11:10:40.231Z,14.90
2022-09-30T11:13:38.994Z,10.07
2022-09-30T11:16:33.289Z,5.90
2022-09-30T11:19:28.574Z,7.55
2022-09-30T11:22:37.918Z,8.18
2022-09-30T11:25:41.060Z,9.15
2022-09-30T11:28:36.669Z,14.73
2022-09-30T11:31:50.079Z,9.07
2022-09-30T11:34:36.106Z,13.20
2022-09-30T11:37:43.691Z,8.05
2022-09-30T11:40:35.754Z,7.60
2022-09-30T11:43:28.208Z,13.25
2022-09-30T11:46:29.344Z,7.93
2022-09-30T11:49:45.081Z,11.95
2022-09-30T11:52:40.021Z,12.80
2022-09-30T11:55:47.783Z,12.05
2022-09-30T11:58:42.114Z,8.05
2022-09-30T12:01:33.467Z,8.05
2022-09-30T12:04:29.610Z,13.65
2022-09-30T12:07:27.083Z,10.02
2022-09-30T12:10:23.696Z,16.67
2022-09-30T12:13:18.617Z,5.60
2022-09-30T12:16:08.274Z,8.90
2022-09-30T12:19:03.824Z,4.10
2022-09-30T12:21:54.762Z,8.50
2022-09-30T12:24:42.867Z,10.55
2022-09-30T12:27:36.090Z,9.85
2022-09-30T12:30:23.086Z,12.18
2022-09-30T12:33:31.059Z,9.85
2022-09-30T12:36:22.974Z,11.38
2022-09-30T12:39:33.783Z,12.48
2022-09-30T12:42:44.329Z,9.57
2022-09-30T12:45:39.314Z,10.90
2022-09-30T12:48:34.373Z,10.77
2022-09-30T12:51:26.064Z,10.15
2022-09-30T12:54:18.003Z,9.10
2022-09-30T12:57:09.200Z,3.67
2022-09-30T12:59:57.326Z,11.75
2022-09-30T13:02:49.898Z,7.38
2022-09-30T13:08:43.340Z,9.45
2022-09-30T13:11:32.426Z,9.18
2022-09-30T13:14:30.985Z,12.32
2022-09-30T13:17:17.286Z,8.98
2022-09-30T13:20:42.260Z,6.35
2022-09-30T13:23:54.299Z,10.10
2022-09-30T13:26:42.156Z,9.88
2022-09-30T13:29:34.980Z,5.18
2022-09-30T13:32:33.451Z,9.35
2022-09-30T13:35:34.230Z,11.15
2022-09-30T13:38:24.499Z,5.70
2022-09-30T13:41:18.970Z,5.25
2022-09-30T13:44:25.905Z,8.38
2022-09-30T13:47:53.352Z,9.38
2022-09-30T13:50:49.794Z,9.35
2022-09-30T13:53:56.632Z,10.30
2022-09-30T13:56:43.325Z,7.47
2022-09-30T13:59:38.735Z,11.65
2022-09-30T14:02:31.576Z,9.55
2022-09-30T14:05:27.292Z,7.65
2022-09-30T14:08:36.815Z,4.50
2022-09-30T14:11:35.253Z,6.15
2022-09-30T14:14:49.401Z,5.65
2022-09-30T14:17:38.549Z,10.05
2022-09-30T14:21:12.581Z,18.83
2022-09-30T14:24:11.237Z,7.80
2022-09-30T14:27:09.291Z,7.10
2022-09-30T14:30:26.225Z,10.73
2022-09-30T14:33:19.034Z,4.22
2022-09-30T14:36:11.602Z,7.07
2022-09-30T14:38:59.786Z,6.50
2022-09-30T14:42:03.992Z,8.80
2022-09-30T14:44:50.334Z,8.40
2022-09-30T14:47:45.129Z,7.43
2022-09-30T14:50:37.062Z,3.50
2022-09-30T14:56:31.717Z,6.97
2022-09-30T14:59:34.766Z,13.32
2022-09-30T15:02:20.978Z,8.82
2022-09-30T15:05:08.544Z,11.82
2022-09-30T15:07:55.340Z,12.95
2022-09-30T15:10:53.022Z,10.20
2022-09-30T15:13:41.420Z,11.05
2022-09-30T15:16:35.578Z,15.45
2022-09-30T15:19:25.271Z,9.50
2022-09-30T15:22:13.718Z,8.85
2022-09-30T15:25:00.742Z,10.90
2022-09-30T15:27:48.313Z,10.63
2022-09-30T15:30:34.615Z,13.45
2022-09-30T15:33:24.182Z,15.65
2022-09-30T15:36:17.320Z,16.88
2022-09-30T15:39:03.694Z,14.27
2022-09-30T15:41:50.066Z,16.60
2022-09-30T15:44:38.179Z,15.93
2022-09-30T15:47:26.064Z,15.07
2022-09-30T15:50:48.981Z,11.80
2022-09-30T15:53:37.764Z,22.63
2022-09-30T15:56:36.915Z,20.60
2022-09-30T15:59:23.116Z,15.77
2022-09-30T16:02:10.438Z,15.45
2022-09-30T16:04:58.162Z,11.32
2022-09-30T16:07:44.272Z,15.18
2022-09-30T16:10:30.309Z,11.93
2022-09-30T16:13:16.589Z,13.90
2022-09-30T16:16:02.683Z,18.60
2022-09-30T16:18:49.906Z,15.38
2022-09-30T16:21:44.876Z,21.08
2022-09-30T16:24:32.241Z,23.10
2022-09-30T16:27:26.069Z,18.45
2022-09-30T16:30:17.234Z,18.00
2022-09-30T16:33:06.168Z,24.08
2022-09-30T16:35:51.935Z,11.20
2022-09-30T16:38:38.227Z,16.80
2022-09-30T16:41:25.459Z,15.07
2022-09-30T16:44:11.581Z,18.13
2022-09-30T16:46:57.441Z,21.15
2022-09-30T16:49:45.411Z,24.83
2022-09-30T16:52:31.710Z,21.77
2022-09-30T16:55:17.847Z,25.33
2022-09-30T16:58:05.485Z,24.48
2022-09-30T17:00:52.418Z,20.42
2022-09-30T17:03:38.177Z,22.98
2022-09-30T17:06:28.964Z,19.48
2022-09-30T17:09:14.988Z,18.08
2022-09-30T17:12:01.248Z,27.13
2022-09-30T17:14:47.448Z,22.27
2022-09-30T17:17:33.306Z,18.45
2022-09-30T17:20:20.670Z,15.15
2022-09-30T17:23:07.661Z,11.82
2022-09-30T17:25:54.744Z,21.73
2022-09-30T17:28:40.770Z,26.33
2022-09-30T17:31:26.593Z,35.08
2022-09-30T17:34:13.130Z,22.67
2022-09-30T17:37:00.148Z,21.50
2022-09-30T17:39:46.134Z,22.13
2022-09-30T17:42:51.452Z,23.17
2022-09-30T17:45:45.215Z,22.00
2022-09-30T17:48:32.083Z,20.85
2022-09-30T17:51:18.213Z,32.67
2022-09-30T17:54:06.015Z,24.05
2022-09-30T17:56:52.287Z,24.90
2022-09-30T17:59:38.113Z,16.10
2022-09-30T18:02:25.378Z,18.60
2022-09-30T18:05:12.021Z,18.85
2022-09-30T18:07:58.134Z,18.65
2022-09-30T18:10:44.476Z,17.95
2022-09-30T18:13:30.400Z,17.98
2022-09-30T18:16:16.322Z,14.15
2022-09-30T18:19:04.872Z,18.55
2022-09-30T18:21:50.914Z,16.15
2022-09-30T18:24:55.561Z,16.23
2022-09-30T18:27:41.742Z,18.10
2022-09-30T18:30:27.932Z,9.07
2022-09-30T18:33:17.380Z,18.65
2022-09-30T18:36:06.905Z,17.63
2022-09-30T18:38:53.859Z,19.25
2022-09-30T18:41:45.321Z,16.50
2022-09-30T18:44:32.621Z,13.93
2022-09-30T18:47:18.695Z,21.27
2022-09-30T18:50:06.528Z,21.48
2022-09-30T18:52:53.577Z,15.85
2022-09-30T18:55:39.610Z,22.25
2022-09-30T18:58:25.750Z,18.25
2022-09-30T19:01:12.080Z,16.83
2022-09-30T19:03:58.252Z,18.60
2022-09-30T19:06:45.251Z,18.80
2022-09-30T19:09:31.333Z,17.98
2022-09-30T19:12:17.754Z,15.77
2022-09-30T19:15:10.144Z,14.50
2022-09-30T19:17:56.868Z,12.32
2022-09-30T19:20:42.805Z,10.65
2022-09-30T19:23:33.119Z,15.43
2022-09-30T19:26:19.470Z,10.77
2022-09-30T19:29:07.854Z,21.27
2022-09-30T19:31:54.594Z,16.33
2022-09-30T19:34:40.424Z,16.00
2022-09-30T19:37:27.868Z,17.55
2022-09-30T19:40:21.471Z,13.77
2022-09-30T19:43:08.995Z,7.22
2022-09-30T19:45:56.698Z,9.82
2022-09-30T19:48:42.737Z,9.18
2022-09-30T19:51:30.716Z,9.20
2022-09-30T19:54:17.119Z,9.60
2022-09-30T19:57:03.006Z,16.88
2022-09-30T19:59:48.914Z,15.73
2022-09-30T20:02:35.555Z,8.60
2022-09-30T20:05:21.595Z,14.20
2022-09-30T20:08:07.334Z,15.70
2022-09-30T20:10:53.060Z,11.80
2022-09-30T20:13:39.814Z,14.68
2022-09-30T20:16:25.888Z,13.85
2022-09-30T20:19:12.138Z,17.10
2022-09-30T20:21:58.305Z,14.27
2022-09-30T20:24:44.330Z,10.40
2022-09-30T20:27:31.071Z,11.52
2022-09-30T20:30:19.175Z,15.50
2022-09-30T20:33:05.549Z,12.30
2022-09-30T20:35:51.494Z,12.60
2022-09-30T20:38:38.971Z,21.50
2022-09-30T20:41:26.212Z,17.38
2022-09-30T20:44:13.691Z,12.05
2022-09-30T20:46:59.640Z,9.77
2022-09-30T20:49:46.646Z,15.23
2022-09-30T20:52:32.947Z,12.63
2022-09-30T20:55:19.230Z,12.77
2022-09-30T20:58:06.742Z,10.38
2022-09-30T21:00:52.788Z,17.08
2022-09-30T21:03:39.115Z,14.48
2022-09-30T21:06:29.350Z,11.77
2022-09-30T21:09:15.653Z,18.05
2022-09-30T21:12:02.102Z,12.40
2022-09-30T21:14:48.391Z,10.82
2022-09-30T21:17:34.143Z,11.05
2022-09-30T21:20:23.262Z,14.05
2022-09-30T21:23:09.340Z,12.57
2022-09-30T21:26:03.795Z,20.10
2022-09-30T21:28:50.842Z,10.23
2022-09-30T21:31:38.008Z,12.93
2022-09-30T21:34:24.636Z,15.52
2022-09-30T21:37:10.882Z,15.50
2022-09-30T21:39:56.899Z,8.77
2022-09-30T21:42:42.726Z,18.42
2022-09-30T21:45:28.648Z,11.27
2022-09-30T21:48:14.462Z,12.65
2022-09-30T21:51:00.723Z,17.77
2022-09-30T21:53:46.901Z,13.02
2022-09-30T21:56:33.171Z,14.23
2022-09-30T21:59:19.507Z,14.43
2022-09-30T22:02:06.563Z,14.00
2022-09-30T22:04:52.806Z,13.48
2022-09-30T22:07:39.109Z,16.58
2022-09-30T22:10:25.615Z,13.60
2022-09-30T22:13:11.963Z,16.00
2022-09-30T22:16:03.882Z,10.00
2022-09-30T22:18:54.311Z,14.60
2022-09-30T22:21:40.666Z,9.48
2022-09-30T22:24:26.938Z,11.38
2022-09-30T22:27:13.058Z,12.88
2022-09-30T22:29:59.860Z,11.18
2022-09-30T22:32:45.903Z,7.28
2022-09-30T22:36:00.974Z,8.52
2022-09-30T22:38:47.109Z,9.77
2022-09-30T22:41:33.972Z,9.73
2022-09-30T22:44:25.699Z,10.70
2022-09-30T22:47:12.052Z,11.70
2022-09-30T22:49:57.805Z,15.85
2022-09-30T22:52:43.745Z,10.82
2022-09-30T22:55:30.306Z,15.13
2022-09-30T22:58:16.262Z,13.70
2022-09-30T23:01:02.077Z,16.48
2022-09-30T23:03:52.879Z,16.17
2022-09-30T23:06:38.746Z,12.30
2022-09-30T23:09:24.940Z,12.23
2022-09-30T23:12:11.731Z,11.45
2022-09-30T23:14:57.681Z,13.35
2022-09-30T23:17:43.651Z,10.93
2022-09-30T23:20:29.448Z,12.77
2022-09-30T23:23:15.207Z,11.82
2022-09-30T23:26:02.891Z,17.00
2022-09-30T23:28:49.381Z,9.25
2022-09-30T23:31:35.947Z,11.43
2022-09-30T23:34:21.846Z,16.65
2022-09-30T23:37:07.677Z,8.15
2022-09-30T23:39:53.674Z,7.10
2022-09-30T23:42:39.421Z,8.85
2022-09-30T23:45:25.152Z,11.00
2022-09-30T23:48:10.897Z,10.50
2022-09-30T23:50:56.698Z,11.77
2022-09-30T23:53:42.861Z,8.88
2022-09-30T23:56:28.995Z,13.88
2022-09-30T23:59:14.940Z,11.88
